• Join FlightAware (Why Join?)
  • Login
  • US Flag 
07:43AM EDT


 

Airport Tracker/Info


-or-


 

Live Flight TrackerFlight Track Log ✈ UAL472 ✈ 18-Jul-2013 ✈ KIAH - CYVR

Flight Track Log - Related Links

Times and Time Zones

All times are in EDT time to prevent confusion due to time zone crossing. See the UAL472 flight status page for this flight to view local times or setup timezone preferences in your user account.

Time Position Orientation Groundspeed Altitude Reporting Facility
EDT Latitude Longitude Course Direction KTS MPH feet Rate Location/Type
07:39PM 29.9764 -95.2983 335° Northwest 172 198 700  Level Houston Center
07:40PM 30.0528 -95.2819 11° North 270 311 2,800 1,740 Climbing Houston Center
07:41PM 30.0931 -95.2881 353° North 260 299 4,400 2,520 Climbing Houston Center
07:42PM 30.3982 -95.5767 334° Northwest  Level FlightAware Approximate
07:42PM 30.1628 -95.3300 333° Northwest 295 339 7,200  Level Houston Center
07:43PM 30.5038 -95.6352 337° Northwest  Level FlightAware Approximate
07:43PM 30.2428 -95.3972 324° Northwest 297 342 11,000  Level Houston Center
07:44PM 30.6102 -95.6919 335° Northwest  Level FlightAware Approximate
07:44PM 30.3203 -95.4642 323° Northwest 339 390 13,400  Level Houston Center
07:45PM 30.4033 -95.5353 324° Northwest 366 421 16,400 2,700 Climbing Houston Center
07:46PM 30.4911 -95.6092 324° Northwest 384 442 19,000 2,460 Climbing Houston Center
07:47PM 30.5839 -95.6764 328° Northwest 393 452 21,600 2,100 Climbing Houston Center
07:48PM 30.6911 -95.7219 340° North 398 458 23,400 1,620 Climbing Houston Center
07:49PM 30.8278 -95.7814 340° North 432 497 25,000 1,320 Climbing Houston Center
07:50PM 30.9467 -95.8333 339° North 452 520 26,200 1,020 Climbing Houston Center
07:51PM 31.0686 -95.8864 340° North 461 531 27,200 720 Climbing Houston Center
07:52PM 31.1903 -95.9400 339° North 466 536 27,800 960 Climbing Houston Center
07:53PM 31.3133 -95.9933 340° North 469 540 29,200 1,020 Climbing Houston Center
07:54PM 31.4331 -96.0464 339° North 460 529 30,000 720 Climbing Houston Center
07:55PM 31.5569 -96.1014 339° North 463 533 30,700 840 Climbing Houston Center
07:56PM 31.6411 -96.1394 339° North 458 527 31,400 1,020 Climbing Fort Worth Center
07:57PM 31.7647 -96.1942 339° North 466 536 32,300 960 Climbing Fort Worth Center
07:58PM 31.8675 -96.2392 340° North 466 536 33,400 840 Climbing Fort Worth Center
07:59PM 31.9956 -96.2989 338° Northwest 453 521 34,000 300 Climbing Fort Worth Center
08:00PM 32.1169 -96.3561 338° Northwest 453 521 34,000  Level Fort Worth Center
08:01PM 32.2283 -96.4336 330° Northwest 458 527 34,000  Level Fort Worth Center
08:02PM 32.3250 -96.5381 318° Northwest 469 540 34,000  Level Fort Worth Center
08:03PM 32.4197 -96.6456 316° Northwest 469 540 34,000  Level Fort Worth Center
08:04PM 32.5144 -96.7531 316° Northwest 469 540 34,000  Level Fort Worth Center
08:05PM 32.6089 -96.8586 317° Northwest 469 540 34,000  Level Fort Worth Center
08:06PM 32.7011 -96.9642 316° Northwest 464 534 34,000  Level Fort Worth Center
08:07PM 32.8222 -97.0203 339° North 455 524 34,000  Level Fort Worth Center
08:08PM 32.9414 -97.0842 336° Northwest 455 524 34,000  Level Fort Worth Center
08:09PM 33.0044 -97.1806 308° West 453 521 34,000 60 Level Fort Worth Center
08:10PM 33.0964 -97.3217 308° West 478 550 34,200 540 Climbing Fort Worth Center
08:11PM 33.1694 -97.4433 306° West 483 556 35,100 600 Climbing Fort Worth Center
08:12PM 33.2444 -97.5650 306° West 472 543 35,500 420 Climbing Fort Worth Center
08:13PM 33.3214 -97.6894 307° West 472 543 36,000 240 Climbing Fort Worth Center
08:14PM 33.3983 -97.8117 307° West 472 543 36,000  Level Fort Worth Center
08:15PM 33.4711 -97.9339 306° West 466 536 36,000  Level Fort Worth Center
08:16PM 33.5478 -98.0564 307° West 466 536 36,000  Level Fort Worth Center
08:17PM 33.6347 -98.1644 314° West 456 525 36,000  Level Fort Worth Center
08:18PM 33.7239 -98.2725 315° West 456 525 36,000  Level Fort Worth Center
08:19PM 33.8128 -98.3808 315° West 451 519 36,000  Level Fort Worth Center
08:20PM 33.9017 -98.4869 315° West 451 519 36,000  Level Fort Worth Center
08:21PM 33.9861 -98.5958 313° West 451 519 36,000  Level Fort Worth Center
08:22PM 34.0706 -98.7022 314° West 446 513 36,000  Level Fort Worth Center
08:23PM 34.1653 -98.8242 313° West 451 519 36,000  Level Fort Worth Center
08:24PM 34.2517 -98.9311 314° West 446 513 36,000  Level Fort Worth Center
08:25PM 34.3400 -99.0383 315° West 446 513 36,000  Level Fort Worth Center
08:26PM 34.4181 -99.1331 315° West 446 513 36,000  Level Fort Worth Center
08:27PM 34.5022 -99.2403 314° West 439 505 36,000 -60 Level Fort Worth Center
08:28PM 34.6006 -99.3461 318° Northwest 434 499 35,900  Descending Fort Worth Center
08:29PM 34.6931 -99.4492 318° Northwest 434 499 36,000  Climbing Fort Worth Center
08:30PM 34.7853 -99.5447 320° Northwest 439 505 36,000  Level Fort Worth Center
08:31PM 34.9317 -99.6992 319° Northwest 441 507 36,000  Level Kansas City Center
08:32PM 35.0250 -99.7981 319° Northwest 441 507 36,000  Level Albuquerque Center
08:33PM 35.1175 -99.8989 318° Northwest 442 509 36,000  Level Albuquerque Center
08:34PM 35.2097 -99.9989 318° Northwest 442 509 36,000  Level Albuquerque Center
08:35PM 35.3025 -100.0983 319° Northwest 441 507 36,000  Level Albuquerque Center
08:37PM 35.3950 -100.1994 318° Northwest 442 509 36,000  Level Albuquerque Center
08:38PM 35.5067 -100.3206 319° Northwest 445 512 36,000  Level Albuquerque Center
08:39PM 35.5986 -100.4214 318° Northwest 442 509 36,000  Level Albuquerque Center
08:40PM 35.6922 -100.5233 319° Northwest 445 512 36,000 -60 Level Albuquerque Center
08:41PM 35.7819 -100.6225 318° Northwest 438 504 35,900  Descending Albuquerque Center
08:42PM 35.8744 -100.7267 318° Northwest 443 510 36,000  Climbing Albuquerque Center
08:42PM 35.9492 -100.8094 318° Northwest 446 513 36,000  Level Albuquerque Center
08:44PM 36.0431 -100.9128 318° Northwest 449 517 36,000  Level Albuquerque Center
08:45PM 36.1375 -101.0186 318° Northwest 453 521 36,000  Level Albuquerque Center
08:46PM 36.2317 -101.1239 318° Northwest 454 522 36,000 -60 Level Albuquerque Center
08:47PM 36.3403 -101.2481 317° Northwest 455 524 35,900 -60 Descending Albuquerque Center
08:48PM 36.4297 -101.3508 317° Northwest 456 525 35,900  Level Albuquerque Center
08:49PM 36.5364 -101.4714 318° Northwest 460 529 36,000  Climbing Albuquerque Center
08:50PM 36.6269 -101.5739 318° Northwest 461 531 36,000  Level Albuquerque Center
08:51PM 36.7178 -101.6761 318° Northwest 459 528 36,000  Level Albuquerque Center
08:52PM 36.8228 -101.7961 318° Northwest 458 527 36,000  Level Albuquerque Center
08:53PM 36.9131 -101.9006 317° Northwest 459 528 36,000  Level Albuquerque Center
08:54PM 37.0178 -102.0219 317° Northwest 460 529 36,000  Level Albuquerque Center
08:55PM 37.1028 -102.1333 314° West 460 529 36,000  Level Albuquerque Center
08:56PM 37.2325 -102.2997 314° West 465 535 36,000  Level Kansas City Center
08:57PM 37.3175 -102.4128 313° West 464 534 36,000  Level Kansas City Center
08:58PM 37.4178 -102.5436 314° West 465 535 36,000  Level Kansas City Center
08:59PM 37.5014 -102.6553 313° West 460 529 36,000  Level Kansas City Center
09:00PM 37.5917 -102.7747 314° West 461 531 36,000  Level Denver Center
09:01PM 37.6772 -102.8875 314° West 464 534 36,000  Level Denver Center
09:02PM 37.7761 -103.0183 314° West 465 535 36,000  Level Denver Center
09:03PM 37.8700 -103.1153 321° Northwest 458 527 36,000  Level Denver Center
09:04PM 37.9903 -103.2086 329° Northwest 454 522 36,000  Level Denver Center
09:05PM 38.0933 -103.2900 328° Northwest 456 525 36,000  Level Denver Center
09:06PM 38.2128 -103.3839 328° Northwest 454 522 36,000  Level Denver Center
09:08PM 38.3319 -103.4778 328° Northwest 454 522 36,000  Level Denver Center
09:09PM 38.4514 -103.5747 328° Northwest 457 526 36,000  Level Denver Center
09:10PM 38.5217 -103.6986 306° West 456 525 36,000  Level Denver Center
09:11PM 38.5953 -103.8553 301° West 459 528 36,000  Level Denver Center
09:12PM 38.6569 -103.9867 301° West 453 521 36,000  Level Denver Center
09:13PM 38.7278 -104.1406 301° West 451 519 36,000 -60 Level Denver Center
09:14PM 38.7836 -104.2611 301° West 450 518 35,900  Descending Denver Center
09:15PM 38.8603 -104.4286 300° West 452 520 36,000  Climbing Denver Center
09:16PM 38.9244 -104.5678 301° West 453 521 36,000  Level Denver Center
09:17PM 38.9881 -104.7067 301° West 450 518 36,000  Level Denver Center
09:18PM 39.0506 -104.8464 300° West 449 517 36,000  Level Denver Center
09:19PM 39.1139 -104.9861 300° West 449 517 36,000  Level Denver Center
09:20PM 39.1775 -105.1278 300° West 454 522 36,000  Level Denver Center
09:21PM 39.2406 -105.2694 300° West 453 521 36,000  Level Denver Center
09:22PM 39.3047 -105.4067 301° West 445 512 36,000 -60 Level Denver Center
09:23PM 39.3844 -105.5708 302° West 447 514 35,900  Descending Denver Center
09:24PM 39.4500 -105.7108 301° West 454 522 36,000  Climbing Denver Center
09:25PM 39.5169 -105.8486 302° West 451 519 36,000  Level Denver Center
09:26PM 39.5833 -105.9883 302° West 455 524 36,000  Level Denver Center
09:27PM 39.6494 -106.1294 301° West 458 527 36,000  Level Denver Center
09:28PM 39.7161 -106.2714 301° West 461 531 36,000  Level Denver Center
09:29PM 39.7819 -106.4122 301° West 458 527 36,000  Level Denver Center
09:30PM 39.8514 -106.5592 302° West 455 524 36,000 -60 Level Denver Center
09:31PM 39.9161 -106.7000 301° West 457 526 35,900  Descending Denver Center
09:32PM 39.9892 -106.8633 300° West 455 524 36,000  Climbing Denver Center
09:33PM 40.0639 -107.0239 301° West 463 533 36,000  Level Denver Center
09:35PM 40.1278 -107.1633 301° West 469 540 36,000  Level Denver Center
09:36PM 40.1903 -107.3031 300° West 468 539 36,000  Level Denver Center
09:37PM 40.2628 -107.4664 300° West 466 536 36,000  Level Denver Center
09:38PM 40.3261 -107.6061 301° West 467 537 36,000  Level Denver Center
09:39PM 40.3989 -107.7692 300° West 466 536 36,000  Level Denver Center
09:40PM 40.4606 -107.9089 300° West 464 534 36,000  Level Denver Center
09:41PM 40.5358 -108.0706 302° West 466 536 36,000  Level Denver Center
09:42PM 40.6025 -108.2014 304° West 457 526 36,000 -60 Level Denver Center
09:43PM 40.6717 -108.3389 304° West 453 521 35,900 -60 Descending Salt Lake Center
09:44PM 40.7375 -108.4708 303° West 450 518 35,900  Level Salt Lake Center
09:45PM 40.8150 -108.6281 303° West 457 526 36,000  Climbing Salt Lake Center
09:46PM 40.8808 -108.7603 303° West 451 519 36,000  Level Salt Lake Center
09:47PM 40.9467 -108.8928 303° West 449 517 36,000  Level Salt Lake Center
09:48PM 41.0225 -109.0472 303° West 447 514 36,000  Level Salt Lake Center
09:49PM 41.0864 -109.1797 303° West 445 512 36,000  Level Salt Lake Center
09:50PM 41.1625 -109.3361 303° West 448 516 36,000  Level Salt Lake Center
09:51PM 41.2269 -109.4697 303° West 445 512 36,000  Level Salt Lake Center
09:52PM 41.2906 -109.6025 303° West 443 510 36,000 -60 Level Salt Lake Center
09:53PM 41.3656 -109.7561 303° West 442 509 35,900  Descending Salt Lake Center
09:54PM 41.4297 -109.8892 303° West 445 512 36,000  Climbing Salt Lake Center
09:55PM 41.5264 -110.0267 313° West 453 521 36,000  Level Salt Lake Center
09:56PM 41.6142 -110.1383 316° Northwest 455 524 36,000  Level Salt Lake Center
09:57PM 41.7147 -110.2672 316° Northwest 449 517 36,000 -60 Level Salt Lake Center
09:58PM 41.7992 -110.3778 316° Northwest 444 511 35,900 -60 Descending Salt Lake Center
09:59PM 41.8833 -110.4869 316° Northwest 442 509 35,900  Level Salt Lake Center
10:00PM 41.9814 -110.6161 316° Northwest 441 507 36,000  Climbing Salt Lake Center
10:01PM 42.0647 -110.7272 315° West 441 507 36,000  Level Salt Lake Center
10:02PM 42.1636 -110.8564 316° Northwest 444 511 36,000  Level Salt Lake Center
10:03PM 42.2561 -110.9786 316° Northwest 441 507 36,000  Level Salt Lake Center
10:04PM 42.3417 -111.0933 315° West 437 503 36,000 -60 Level Salt Lake Center
10:05PM 42.4283 -111.2094 315° West 439 505 35,900  Descending Salt Lake Center
10:06PM 42.5156 -111.3267 315° West 443 510 36,000  Climbing Salt Lake Center
10:07PM 42.6014 -111.4422 315° West 439 505 36,000  Level Salt Lake Center
10:08PM 42.6886 -111.5583 316° Northwest 441 507 36,000  Level Salt Lake Center
10:09PM 42.7892 -111.6950 315° West 445 512 36,000  Level Salt Lake Center
10:10PM 42.8700 -111.8042 315° West 436 502 36,000  Level Salt Lake Center
10:11PM 42.9661 -111.9342 315° West 435 501 36,000  Level Salt Lake Center
10:13PM 43.0475 -112.0472 315° West 435 501 36,000  Level Salt Lake Center
10:14PM 43.1417 -112.1803 314° West 434 499 36,000  Level Salt Lake Center
10:15PM 43.2233 -112.2939 315° West 438 504 36,000  Level Salt Lake Center
10:16PM 43.3172 -112.4247 315° West 431 496 36,000  Level Salt Lake Center
10:18PM 43.4775 -112.6519 314° West 434 499 36,000  Level Salt Lake Center
10:19PM 43.5714 -112.7806 315° West 427 491 36,000  Level Salt Lake Center
10:20PM 43.6525 -112.8967 314° West 433 498 36,000  Level Salt Lake Center
10:21PM 43.7447 -113.0297 314° West 430 495 36,000  Level Salt Lake Center
10:22PM 43.8239 -113.1444 314° West 429 494 36,000 -60 Level Salt Lake Center
10:23PM 43.9153 -113.2753 314° West 422 486 35,900 -60 Descending Salt Lake Center
10:24PM 43.9936 -113.3886 314° West 421 484 35,900  Level Salt Lake Center
10:25PM 44.0736 -113.5033 314° West 428 493 36,000  Climbing Salt Lake Center
10:26PM 44.1650 -113.6378 313° West 428 493 36,000  Level Salt Lake Center
10:27PM 44.2453 -113.7533 314° West 431 496 36,000  Level Salt Lake Center
10:28PM 44.3358 -113.8894 313° West 430 495 36,000  Level Salt Lake Center
10:29PM 44.4175 -114.0100 314° West 430 495 36,000  Level Salt Lake Center
10:30PM 44.4961 -114.1272 313° West 431 496 36,000  Level Salt Lake Center
10:31PM 44.5889 -114.2628 314° West 433 498 36,000  Level Salt Lake Center
10:32PM 44.6669 -114.3789 313° West 429 494 36,000  Level Salt Lake Center
10:33PM 44.7572 -114.5153 313° West 426 490 36,000  Level Salt Lake Center
10:34PM 44.8344 -114.6308 313° West 424 488 36,000  Level Salt Lake Center
10:35PM 44.9247 -114.7678 313° West 427 491 36,000  Level Salt Lake Center
10:36PM 45.0008 -114.8856 312° West 426 490 36,000  Level Salt Lake Center
10:37PM 45.0783 -115.0031 313° West 426 490 36,000  Level Salt Lake Center
10:38PM 45.1689 -115.1425 313° West 431 496 36,000  Level Salt Lake Center
10:39PM 45.2458 -115.2617 313° West 430 495 36,000  Level Salt Lake Center
10:40PM 45.3364 -115.4028 312° West 432 497 36,000  Level Salt Lake Center
10:41PM 45.4125 -115.5211 313° West 428 493 36,000  Level Salt Lake Center
10:42PM 45.5008 -115.6603 312° West 426 490 36,000  Level Salt Lake Center
10:43PM 45.5767 -115.7803 312° West 426 490 36,000 360 Level Salt Lake Center
10:44PM 45.6639 -115.9186 312° West 422 486 36,800 720 Climbing Salt Lake Center
10:45PM 45.7381 -116.0353 312° West 418 481 37,500 540 Climbing Salt Lake Center
10:46PM 45.8236 -116.1761 311° West 419 482 38,000 240 Climbing Salt Lake Center
10:48PM 45.8969 -116.2928 312° West 416 479 38,000  Level Salt Lake Center
10:49PM 45.9697 -116.4117 311° West 415 478 38,000 -60 Level Salt Lake Center
10:50PM 46.0464 -116.5350 312° West 416 479 37,900  Descending Salt Lake Center
10:51PM 46.1253 -116.6625 312° West 422 486 38,000  Climbing Salt Lake Center
10:52PM 46.2186 -116.8142 312° West 423 487 37,900 -60 Descending Salt Lake Center
10:53PM 46.2975 -116.9425 312° West 426 490 37,900  Level Salt Lake Center
10:54PM 46.3900 -117.0975 311° West 425 489 37,900  Level Seattle Center
10:55PM 46.4686 -117.2267 311° West 426 490 37,900  Level Seattle Center
10:56PM 46.5458 -117.3553 311° West 422 486 37,900  Level Seattle Center
10:57PM 46.6228 -117.4858 311° West 424 488 37,900  Level Seattle Center
10:58PM 46.6997 -117.6144 311° West 422 486 37,900  Level Seattle Center
10:59PM 46.7764 -117.7456 311° West 424 488 37,900  Level Seattle Center
11:00PM 46.8683 -117.9025 311° West 424 488 37,900  Level Seattle Center
11:01PM 46.9458 -118.0331 311° West 423 487 37,900  Level Seattle Center
11:02PM 47.0219 -118.1658 310° West 425 489 37,900  Level Seattle Center
11:03PM 47.1000 -118.3003 310° West 429 494 37,900  Level Seattle Center
11:04PM 47.1756 -118.4328 310° West 426 490 37,900  Level Seattle Center
11:05PM 47.2503 -118.5625 310° West 417 480 37,900  Level Seattle Center
11:06PM 47.3261 -118.6972 310° West 424 488 37,900  Level Seattle Center
11:07PM 47.4025 -118.8303 310° West 426 490 37,900  Level Seattle Center
11:08PM 47.4772 -118.9639 310° West 421 484 37,900  Level Seattle Center
11:09PM 47.5531 -119.1000 310° West 428 493 37,900  Level Seattle Center
11:10PM 47.6308 -119.2361 310° West 433 498 38,000  Climbing Seattle Center
11:11PM 47.7064 -119.3736 309° West 433 498 37,900 -60 Descending Seattle Center
11:12PM 47.7825 -119.5111 310° West 433 498 37,900  Level Seattle Center
11:13PM 47.8589 -119.6475 310° West 432 497 37,900  Level Seattle Center
11:14PM 47.9333 -119.7872 309° West 432 497 37,900  Level Seattle Center
11:15PM 48.0089 -119.9269 309° West 433 498 37,900  Level Seattle Center
11:16PM 48.1000 -120.0917 310° West 429 494 37,900  Level Seattle Center
11:17PM 48.1503 -120.2522 295° West 428 493 37,900  Level Seattle Center
11:18PM 48.1817 -120.4197 286° West 419 482 37,900  Level Seattle Center
11:19PM 48.2139 -120.5903 286° West 428 493 37,900  Level Seattle Center
11:20PM 48.2414 -120.7592 284° West 420 483 37,900  Level Seattle Center
11:21PM 48.2700 -120.9175 285° West 421 484 38,000  Climbing Seattle Center
11:22PM 48.3039 -121.1200 284° West 422 486 38,000 -840 Level Seattle Center
11:23PM 48.3328 -121.2908 284° West 426 490 36,300 -2,100 Descending Seattle Center
11:24PM 48.3586 -121.4539 283° West 411 473 33,800 -3,780 Descending Seattle Center
11:25PM 48.3844 -121.6136 284° West 401 461 28,700 -4,860 Descending Seattle Center
11:26PM 48.4322 -121.7797 293° West 432 497 24,000 -4,200 Descending Seattle Center
11:27PM 48.5036 -121.9289 306° West 445 512 20,200 -3,360 Descending Seattle Center
11:28PM 48.5744 -122.0786 306° West 446 513 17,200 -3,000 Descending Seattle Center
11:29PM 48.6294 -122.2333 298° West 427 491 14,200 -3,180 Descending Seattle Center
11:30PM 48.6500 -122.3667 283° West 410 472 12,100 -1,380 Descending Vancouver Center
11:31PM 48.6833 -122.4833 293° West 360 414 12,000 -60 Descending Vancouver Center
11:32PM 48.7500 -122.5833 315° West 350 403 12,000 -360 Level Vancouver Center
11:33PM 48.8167 -122.7167 307° West 340 391 11,300 -1,020 Descending Vancouver Center
11:34PM 48.8667 -122.8167 307° West 340 391 10,000 -660 Descending Vancouver Center
11:35PM 48.9333 -122.9167 315° West 340 391 10,000  Level Vancouver Center
11:36PM 48.9833 -123.0167 307° West 340 391 10,000 -60 Level Vancouver Center
11:37PM 49.0500 -123.1333 311° West 320 368 9,900 -960 Descending Vancouver Center
11:38PM 49.0667 -123.2333 284° West 280 322 8,100 -1,860 Descending Vancouver Center
11:39PM 49.0833 -123.3333 284° West 260 299 6,200 -1,800 Descending Vancouver Center
11:40PM 49.1167 -123.4500 294° West 240 276 4,500 -1,560 Descending Vancouver Center
11:41PM 49.1500 -123.5000 316° Northwest 230 265 3,100 -1,440 Descending Vancouver Center